sensor_id;sensor_type;location;lat;lon;timestamp;pressure;altitude;pressure_sealevel;temperature;humidity
10978;BME280;5542;48.272;10.794;2023-07-09T00:01:12;96167.09;;;20.70;57.46
10978;BME280;5542;48.272;10.794;2023-07-09T00:03:39;96166.59;;;20.63;57.35
10978;BME280;5542;48.272;10.794;2023-07-09T00:06:07;96159.97;;;20.55;57.72
10978;BME280;5542;48.272;10.794;2023-07-09T00:08:38;96166.97;;;20.51;57.64
10978;BME280;5542;48.272;10.794;2023-07-09T00:11:08;96164.09;;;20.42;58.09
10978;BME280;5542;48.272;10.794;2023-07-09T00:13:34;96173.78;;;20.33;58.55
10978;BME280;5542;48.272;10.794;2023-07-09T00:16:06;96169.25;;;20.29;58.84
10978;BME280;5542;48.272;10.794;2023-07-09T00:18:36;96163.44;;;20.21;58.91
10978;BME280;5542;48.272;10.794;2023-07-09T00:21:03;96166.38;;;20.20;59.01
10978;BME280;5542;48.272;10.794;2023-07-09T00:23:31;96170.69;;;20.16;59.13
10978;BME280;5542;48.272;10.794;2023-07-09T00:25:59;96162.16;;;20.14;59.52
10978;BME280;5542;48.272;10.794;2023-07-09T00:28:28;96164.34;;;20.07;59.66
10978;BME280;5542;48.272;10.794;2023-07-09T00:30:55;96159.31;;;20.00;60.06
10978;BME280;5542;48.272;10.794;2023-07-09T00:33:22;96165.25;;;19.92;60.26
10978;BME280;5542;48.272;10.794;2023-07-09T00:35:53;96170.06;;;19.90;60.45
10978;BME280;5542;48.272;10.794;2023-07-09T00:38:22;96170.59;;;19.87;60.42
10978;BME280;5542;48.272;10.794;2023-07-09T00:41:02;96163.97;;;19.79;60.74
10978;BME280;5542;48.272;10.794;2023-07-09T00:43:30;96173.56;;;19.85;60.58
10978;BME280;5542;48.272;10.794;2023-07-09T00:49:12;96178.09;;;19.85;60.54
10978;BME280;5542;48.272;10.794;2023-07-09T00:51:45;96176.50;;;19.79;60.66
10978;BME280;5542;48.272;10.794;2023-07-09T00:54:18;96182.13;;;19.77;60.74
10978;BME280;5542;48.272;10.794;2023-07-09T00:56:50;96179.97;;;19.79;60.67
10978;BME280;5542;48.272;10.794;2023-07-09T00:59:21;96185.59;;;19.78;60.67
10978;BME280;5542;48.272;10.794;2023-07-09T01:01:48;96179.19;;;19.79;60.86
10978;BME280;5542;48.272;10.794;2023-07-09T01:04:17;96189.31;;;19.82;60.67
10978;BME280;5542;48.272;10.794;2023-07-09T01:06:49;96181.84;;;19.79;60.93
10978;BME280;5542;48.272;10.794;2023-07-09T01:09:17;96189.06;;;19.78;60.72
10978;BME280;5542;48.272;10.794;2023-07-09T01:11:44;96179.75;;;19.76;60.96
10978;BME280;5542;48.272;10.794;2023-07-09T01:14:15;96185.09;;;19.76;60.61
10978;BME280;5542;48.272;10.794;2023-07-09T01:16:48;96189.88;;;19.79;60.66
10978;BME280;5542;48.272;10.794;2023-07-09T01:19:22;96188.78;;;19.85;60.29
10978;BME280;5542;48.272;10.794;2023-07-09T01:21:53;96189.84;;;19.84;60.71
10978;BME280;5542;48.272;10.794;2023-07-09T01:24:54;96190.97;;;19.73;60.92
10978;BME280;5542;48.272;10.794;2023-07-09T01:27:26;96194.19;;;19.64;61.09
10978;BME280;5542;48.272;10.794;2023-07-09T01:29:55;96192.03;;;19.72;61.08
10978;BME280;5542;48.272;10.794;2023-07-09T01:32:23;96197.44;;;19.61;61.49
10978;BME280;5542;48.272;10.794;2023-07-09T01:34:52;96196.88;;;19.59;61.68
10978;BME280;5542;48.272;10.794;2023-07-09T01:37:23;96196.38;;;19.52;61.66
10978;BME280;5542;48.272;10.794;2023-07-09T01:39:50;96197.44;;;19.46;61.95
10978;BME280;5542;48.272;10.794;2023-07-09T01:42:16;96200.66;;;19.48;61.63
10978;BME280;5542;48.272;10.794;2023-07-09T01:44:43;96192.94;;;19.47;61.78
10978;BME280;5542;48.272;10.794;2023-07-09T01:47:10;96193.19;;;19.45;61.79
10978;BME280;5542;48.272;10.794;2023-07-09T01:49:37;96194.28;;;19.44;61.71
10978;BME280;5542;48.272;10.794;2023-07-09T01:52:06;96198.25;;;19.41;61.73
10978;BME280;5542;48.272;10.794;2023-07-09T01:54:36;96193.22;;;19.40;61.68
10978;BME280;5542;48.272;10.794;2023-07-09T01:57:15;96184.41;;;19.39;61.40
10978;BME280;5542;48.272;10.794;2023-07-09T01:59:42;96184.94;;;19.36;61.63
10978;BME280;5542;48.272;10.794;2023-07-09T02:02:09;96191.63;;;19.39;61.61
10978;BME280;5542;48.272;10.794;2023-07-09T02:04:40;96186.31;;;19.34;61.74
10978;BME280;5542;48.272;10.794;2023-07-09T02:07:08;96193.75;;;19.32;62.01
10978;BME280;5542;48.272;10.794;2023-07-09T02:09:36;96191.13;;;19.27;61.97
10978;BME280;5542;48.272;10.794;2023-07-09T02:12:03;96183.13;;;19.27;62.30
10978;BME280;5542;48.272;10.794;2023-07-09T02:14:30;96184.47;;;19.24;62.60
10978;BME280;5542;48.272;10.794;2023-07-09T02:16:56;96186.38;;;19.18;62.67
10978;BME280;5542;48.272;10.794;2023-07-09T02:19:23;96195.69;;;19.21;62.65
10978;BME280;5542;48.272;10.794;2023-07-09T02:21:49;96191.69;;;19.18;62.86
10978;BME280;5542;48.272;10.794;2023-07-09T02:24:16;96201.00;;;19.21;62.87
10978;BME280;5542;48.272;10.794;2023-07-09T02:26:44;96201.31;;;19.14;63.02
10978;BME280;5542;48.272;10.794;2023-07-09T02:29:11;96198.88;;;19.13;63.20
10978;BME280;5542;48.272;10.794;2023-07-09T02:31:37;96202.09;;;19.15;63.16
10978;BME280;5542;48.272;10.794;2023-07-09T02:34:05;96196.50;;;19.11;63.49
10978;BME280;5542;48.272;10.794;2023-07-09T02:36:32;96201.06;;;19.06;63.68
10978;BME280;5542;48.272;10.794;2023-07-09T02:38:59;96194.38;;;19.03;63.81
10978;BME280;5542;48.272;10.794;2023-07-09T02:41:25;96203.19;;;18.93;64.13
10978;BME280;5542;48.272;10.794;2023-07-09T02:43:53;96200.00;;;18.97;64.09
10978;BME280;5542;48.272;10.794;2023-07-09T02:46:20;96205.34;;;18.91;64.36
10978;BME280;5542;48.272;10.794;2023-07-09T02:48:46;96204.28;;;18.87;64.42
10978;BME280;5542;48.272;10.794;2023-07-09T02:51:13;96202.41;;;18.83;64.31
10978;BME280;5542;48.272;10.794;2023-07-09T02:53:39;96202.97;;;18.70;65.05
10978;BME280;5542;48.272;10.794;2023-07-09T02:56:06;96206.97;;;18.72;65.02
10978;BME280;5542;48.272;10.794;2023-07-09T02:58:32;96213.63;;;18.75;65.03
10978;BME280;5542;48.272;10.794;2023-07-09T03:01:00;96211.50;;;18.72;65.20
10978;BME280;5542;48.272;10.794;2023-07-09T03:03:28;96210.41;;;18.62;65.52
10978;BME280;5542;48.272;10.794;2023-07-09T03:05:55;96210.13;;;18.59;65.70
10978;BME280;5542;48.272;10.794;2023-07-09T03:08:22;96208.28;;;18.59;65.88
10978;BME280;5542;48.272;10.794;2023-07-09T03:10:48;96207.19;;;18.60;65.85
10978;BME280;5542;48.272;10.794;2023-07-09T03:13:15;96204.81;;;18.59;65.58
10978;BME280;5542;48.272;10.794;2023-07-09T03:15:41;96204.03;;;18.48;65.92
10978;BME280;5542;48.272;10.794;2023-07-09T03:18:09;96207.47;;;18.49;65.91
10978;BME280;5542;48.272;10.794;2023-07-09T03:20:36;96200.28;;;18.44;66.07
10978;BME280;5542;48.272;10.794;2023-07-09T03:23:03;96211.72;;;18.39;66.11
10978;BME280;5542;48.272;10.794;2023-07-09T03:25:30;96211.22;;;18.37;66.17
10978;BME280;5542;48.272;10.794;2023-07-09T03:27:57;96209.34;;;18.43;65.95
10978;BME280;5542;48.272;10.794;2023-07-09T03:30:23;96208.00;;;18.40;66.19
10978;BME280;5542;48.272;10.794;2023-07-09T03:32:50;96222.38;;;18.34;66.46
10978;BME280;5542;48.272;10.794;2023-07-09T03:35:18;96223.19;;;18.30;66.61
10978;BME280;5542;48.272;10.794;2023-07-09T03:37:44;96215.19;;;18.25;66.99
10978;BME280;5542;48.272;10.794;2023-07-09T03:40:19;96216.50;;;18.22;67.18
10978;BME280;5542;48.272;10.794;2023-07-09T03:42:46;96221.03;;;18.22;67.29
10978;BME280;5542;48.272;10.794;2023-07-09T03:45:13;96226.34;;;18.22;67.29
10978;BME280;5542;48.272;10.794;2023-07-09T03:47:39;96231.44;;;18.38;66.83
10978;BME280;5542;48.272;10.794;2023-07-09T03:50:07;96231.97;;;18.35;67.29
10978;BME280;5542;48.272;10.794;2023-07-09T03:52:36;96233.84;;;18.35;67.20
10978;BME280;5542;48.272;10.794;2023-07-09T03:55:03;96244.22;;;18.31;67.57
10978;BME280;5542;48.272;10.794;2023-07-09T03:57:30;96245.56;;;18.34;67.52
10978;BME280;5542;48.272;10.794;2023-07-09T03:59:56;96234.34;;;18.37;67.38
10978;BME280;5542;48.272;10.794;2023-07-09T04:02:23;96236.78;;;18.38;67.42
10978;BME280;5542;48.272;10.794;2023-07-09T04:04:49;96240.75;;;18.26;67.84
10978;BME280;5542;48.272;10.794;2023-07-09T04:07:16;96239.13;;;18.20;68.10
10978;BME280;5542;48.272;10.794;2023-07-09T04:09:44;96245.00;;;18.22;68.01
10978;BME280;5542;48.272;10.794;2023-07-09T04:12:11;96240.72;;;18.21;67.97
10978;BME280;5542;48.272;10.794;2023-07-09T04:14:38;96242.88;;;18.24;68.11
10978;BME280;5542;48.272;10.794;2023-07-09T04:17:05;96245.28;;;18.25;68.15
10978;BME280;5542;48.272;10.794;2023-07-09T04:19:32;96247.66;;;18.32;67.96
10978;BME280;5542;48.272;10.794;2023-07-09T04:21:58;96241.81;;;18.35;67.88
10978;BME280;5542;48.272;10.794;2023-07-09T04:24:25;96252.75;;;18.38;67.97
10978;BME280;5542;48.272;10.794;2023-07-09T04:26:53;96251.69;;;18.45;67.91
10978;BME280;5542;48.272;10.794;2023-07-09T04:29:21;96249.28;;;18.48;67.86
10978;BME280;5542;48.272;10.794;2023-07-09T04:31:48;96257.28;;;18.53;67.59
10978;BME280;5542;48.272;10.794;2023-07-09T04:34:14;96249.03;;;18.55;67.75
10978;BME280;5542;48.272;10.794;2023-07-09T04:36:41;96249.28;;;18.58;67.74
10978;BME280;5542;48.272;10.794;2023-07-09T04:39:07;96251.16;;;18.58;68.01
10978;BME280;5542;48.272;10.794;2023-07-09T04:41:34;96250.38;;;18.57;68.18
10978;BME280;5542;48.272;10.794;2023-07-09T04:44:02;96248.50;;;18.63;68.06
10978;BME280;5542;48.272;10.794;2023-07-09T04:46:29;96255.69;;;18.67;68.11
10978;BME280;5542;48.272;10.794;2023-07-09T04:48:55;96246.13;;;18.72;67.80
10978;BME280;5542;48.272;10.794;2023-07-09T04:51:22;96255.16;;;18.65;67.98
10978;BME280;5542;48.272;10.794;2023-07-09T04:53:50;96252.78;;;18.69;68.11
10978;BME280;5542;48.272;10.794;2023-07-09T04:56:17;96254.13;;;18.82;67.77
10978;BME280;5542;48.272;10.794;2023-07-09T04:58:43;96260.53;;;18.81;68.22
10978;BME280;5542;48.272;10.794;2023-07-09T05:01:11;96253.84;;;19.04;67.11
10978;BME280;5542;48.272;10.794;2023-07-09T05:03:38;96250.38;;;18.93;67.99
10978;BME280;5542;48.272;10.794;2023-07-09T05:06:05;96263.44;;;18.95;68.55
10978;BME280;5542;48.272;10.794;2023-07-09T05:08:31;96262.38;;;18.96;68.62
10978;BME280;5542;48.272;10.794;2023-07-09T05:10:58;96259.41;;;19.07;68.08
10978;BME280;5542;48.272;10.794;2023-07-09T05:13:24;96267.97;;;19.09;68.04
10978;BME280;5542;48.272;10.794;2023-07-09T05:15:52;96263.94;;;19.17;67.80
10978;BME280;5542;48.272;10.794;2023-07-09T05:18:20;96270.31;;;19.26;67.57
10978;BME280;5542;48.272;10.794;2023-07-09T05:20:47;96268.44;;;19.27;67.46
10978;BME280;5542;48.272;10.794;2023-07-09T05:23:14;96270.56;;;19.40;67.05
10978;BME280;5542;48.272;10.794;2023-07-09T05:25:40;96274.56;;;19.42;66.99
10978;BME280;5542;48.272;10.794;2023-07-09T05:28:07;96271.59;;;19.49;67.16
10978;BME280;5542;48.272;10.794;2023-07-09T05:30:33;96276.94;;;19.44;67.57
10978;BME280;5542;48.272;10.794;2023-07-09T05:33:00;96273.50;;;19.43;67.77
10978;BME280;5542;48.272;10.794;2023-07-09T05:35:28;96272.41;;;19.50;67.64
10978;BME280;5542;48.272;10.794;2023-07-09T05:37:55;96270.50;;;19.55;67.62
10978;BME280;5542;48.272;10.794;2023-07-09T05:40:22;96271.31;;;19.66;67.15
10978;BME280;5542;48.272;10.794;2023-07-09T05:42:49;96277.63;;;19.90;65.97
10978;BME280;5542;48.272;10.794;2023-07-09T05:45:16;96279.72;;;19.99;65.79
10978;BME280;5542;48.272;10.794;2023-07-09T05:47:42;96283.94;;;20.10;65.70
10978;BME280;5542;48.272;10.794;2023-07-09T05:50:10;96281.50;;;20.18;65.40
10978;BME280;5542;48.272;10.794;2023-07-09T05:52:38;96284.06;;;20.34;64.75
10978;BME280;5542;48.272;10.794;2023-07-09T05:55:05;96277.59;;;20.45;64.95
10978;BME280;5542;48.272;10.794;2023-07-09T05:57:32;96272.63;;;20.73;64.68
10978;BME280;5542;48.272;10.794;2023-07-09T05:59:58;96279.56;;;20.74;64.50
10978;BME280;5542;48.272;10.794;2023-07-09T06:02:25;96281.13;;;20.75;64.11
10978;BME280;5542;48.272;10.794;2023-07-09T06:04:51;96279.25;;;20.80;64.70
10978;BME280;5542;48.272;10.794;2023-07-09T06:07:18;96278.59;;;20.93;65.02
10978;BME280;5542;48.272;10.794;2023-07-09T06:09:46;96281.94;;;21.09;64.73
10978;BME280;5542;48.272;10.794;2023-07-09T06:12:13;96276.16;;;21.26;64.51
10978;BME280;5542;48.272;10.794;2023-07-09T06:14:40;96273.63;;;21.40;64.50
10978;BME280;5542;48.272;10.794;2023-07-09T06:17:07;96270.59;;;21.52;63.80
10978;BME280;5542;48.272;10.794;2023-07-09T06:19:33;96274.50;;;21.59;63.02
10978;BME280;5542;48.272;10.794;2023-07-09T06:22:00;96272.78;;;21.68;62.72
10978;BME280;5542;48.272;10.794;2023-07-09T06:24:27;96277.47;;;21.82;62.62
10978;BME280;5542;48.272;10.794;2023-07-09T06:26:54;96283.16;;;21.99;62.12
10978;BME280;5542;48.272;10.794;2023-07-09T06:29:21;96285.09;;;22.17;62.83
10978;BME280;5542;48.272;10.794;2023-07-09T06:31:48;96276.03;;;22.32;61.90
10978;BME280;5542;48.272;10.794;2023-07-09T06:34:14;96273.50;;;22.41;62.14
10978;BME280;5542;48.272;10.794;2023-07-09T06:36:41;96265.88;;;22.48;61.70
10978;BME280;5542;48.272;10.794;2023-07-09T06:39:08;96273.13;;;22.66;61.53
10978;BME280;5542;48.272;10.794;2023-07-09T06:41:35;96273.97;;;22.81;60.87
10978;BME280;5542;48.272;10.794;2023-07-09T06:44:05;96276.56;;;23.05;61.04
10978;BME280;5542;48.272;10.794;2023-07-09T06:46:32;96273.41;;;23.30;61.42
10978;BME280;5542;48.272;10.794;2023-07-09T06:48:59;96277.88;;;23.67;60.06
10978;BME280;5542;48.272;10.794;2023-07-09T06:51:26;96273.16;;;24.00;57.64
10978;BME280;5542;48.272;10.794;2023-07-09T06:53:52;96269.53;;;24.33;55.17
10978;BME280;5542;48.272;10.794;2023-07-09T06:56:19;96273.00;;;24.47;53.95
10978;BME280;5542;48.272;10.794;2023-07-09T06:58:46;96278.38;;;24.47;53.67
10978;BME280;5542;48.272;10.794;2023-07-09T07:01:14;96266.78;;;24.60;53.99
10978;BME280;5542;48.272;10.794;2023-07-09T07:03:40;96266.06;;;24.91;54.25
10978;BME280;5542;48.272;10.794;2023-07-09T07:06:07;96272.22;;;25.36;52.53
10978;BME280;5542;48.272;10.794;2023-07-09T07:08:35;96256.16;;;25.62;51.36
10978;BME280;5542;48.272;10.794;2023-07-09T07:11:03;96260.28;;;26.17;53.12
10978;BME280;5542;48.272;10.794;2023-07-09T07:13:32;96254.91;;;26.77;52.82
10978;BME280;5542;48.272;10.794;2023-07-09T07:15:59;96247.72;;;27.25;47.46
10978;BME280;5542;48.272;10.794;2023-07-09T07:18:27;96252.22;;;27.59;47.46
10978;BME280;5542;48.272;10.794;2023-07-09T07:20:53;96253.22;;;28.14;49.00
10978;BME280;5542;48.272;10.794;2023-07-09T07:23:20;96256.19;;;28.83;45.67
10978;BME280;5542;48.272;10.794;2023-07-09T07:25:48;96243.22;;;29.10;43.14
10978;BME280;5542;48.272;10.794;2023-07-09T07:28:15;96245.78;;;29.52;40.23
10978;BME280;5542;48.272;10.794;2023-07-09T07:30:42;96248.97;;;29.78;41.57
10978;BME280;5542;48.272;10.794;2023-07-09T07:33:09;96248.72;;;30.08;42.10
10978;BME280;5542;48.272;10.794;2023-07-09T07:35:37;96252.84;;;30.54;41.49
10978;BME280;5542;48.272;10.794;2023-07-09T07:38:03;96244.72;;;31.10;42.46
10978;BME280;5542;48.272;10.794;2023-07-09T07:40:30;96235.91;;;31.61;38.37
10978;BME280;5542;48.272;10.794;2023-07-09T07:42:57;96232.50;;;31.96;34.95
10978;BME280;5542;48.272;10.794;2023-07-09T07:45:23;96233.00;;;32.01;35.35
10978;BME280;5542;48.272;10.794;2023-07-09T07:47:50;96230.03;;;32.26;33.20
10978;BME280;5542;48.272;10.794;2023-07-09T07:50:18;96229.13;;;32.37;30.93
10978;BME280;5542;48.272;10.794;2023-07-09T07:52:46;96228.66;;;32.16;32.39
10978;BME280;5542;48.272;10.794;2023-07-09T07:55:13;96230.19;;;31.98;31.49
10978;BME280;5542;48.272;10.794;2023-07-09T07:57:40;96236.97;;;31.88;31.56
10978;BME280;5542;48.272;10.794;2023-07-09T08:00:07;96238.25;;;32.10;36.58
10978;BME280;5542;48.272;10.794;2023-07-09T08:02:34;96229.44;;;32.52;33.72
10978;BME280;5542;48.272;10.794;2023-07-09T08:05:01;96229.56;;;32.78;31.49
10978;BME280;5542;48.272;10.794;2023-07-09T08:07:27;96225.44;;;32.65;32.77
10978;BME280;5542;48.272;10.794;2023-07-09T08:09:55;96235.19;;;33.05;32.91
10978;BME280;5542;48.272;10.794;2023-07-09T08:12:22;96225.09;;;33.09;31.50
10978;BME280;5542;48.272;10.794;2023-07-09T08:14:48;96221.44;;;33.21;31.52
10978;BME280;5542;48.272;10.794;2023-07-09T08:17:15;96216.94;;;33.32;30.30
10978;BME280;5542;48.272;10.794;2023-07-09T08:19:46;96221.66;;;33.54;33.55
10978;BME280;5542;48.272;10.794;2023-07-09T08:22:13;96215.72;;;33.98;27.46
10978;BME280;5542;48.272;10.794;2023-07-09T08:24:40;96213.97;;;33.86;27.63
10978;BME280;5542;48.272;10.794;2023-07-09T08:27:09;96203.09;;;33.41;25.91
10978;BME280;5542;48.272;10.794;2023-07-09T08:29:36;96201.69;;;33.27;28.47
10978;BME280;5542;48.272;10.794;2023-07-09T08:32:03;96204.38;;;33.47;26.71
10978;BME280;5542;48.272;10.794;2023-07-09T08:34:30;96215.38;;;33.08;31.78
10978;BME280;5542;48.272;10.794;2023-07-09T08:36:56;96215.34;;;33.50;30.74
10978;BME280;5542;48.272;10.794;2023-07-09T08:39:23;96201.47;;;33.59;27.95
10978;BME280;5542;48.272;10.794;2023-07-09T08:41:54;96202.16;;;33.79;26.40
10978;BME280;5542;48.272;10.794;2023-07-09T08:44:34;96210.00;;;33.84;26.04
10978;BME280;5542;48.272;10.794;2023-07-09T08:47:07;96204.50;;;33.80;26.05
10978;BME280;5542;48.272;10.794;2023-07-09T08:49:41;96208.97;;;33.66;26.39
10978;BME280;5542;48.272;10.794;2023-07-09T08:52:13;96209.81;;;33.47;26.27
10978;BME280;5542;48.272;10.794;2023-07-09T08:54:42;96207.25;;;33.11;26.76
10978;BME280;5542;48.272;10.794;2023-07-09T08:57:17;96212.81;;;33.19;29.35
10978;BME280;5542;48.272;10.794;2023-07-09T08:59:47;96207.66;;;33.33;27.32
10978;BME280;5542;48.272;10.794;2023-07-09T09:02:22;96200.44;;;33.67;25.52
10978;BME280;5542;48.272;10.794;2023-07-09T09:04:53;96212.25;;;34.01;27.79
10978;BME280;5542;48.272;10.794;2023-07-09T09:07:31;96210.19;;;34.21;27.54
10978;BME280;5542;48.272;10.794;2023-07-09T09:10:04;96207.00;;;34.46;25.32
10978;BME280;5542;48.272;10.794;2023-07-09T09:12:35;96207.31;;;34.40;24.97
10978;BME280;5542;48.272;10.794;2023-07-09T09:15:12;96210.28;;;34.28;26.50
10978;BME280;5542;48.272;10.794;2023-07-09T09:17:40;96212.47;;;34.46;25.73
10978;BME280;5542;48.272;10.794;2023-07-09T09:20:10;96211.31;;;34.47;25.33
10978;BME280;5542;48.272;10.794;2023-07-09T09:22:43;96213.94;;;34.39;25.40
10978;BME280;5542;48.272;10.794;2023-07-09T09:25:19;96217.25;;;34.52;25.89
10978;BME280;5542;48.272;10.794;2023-07-09T09:27:48;96209.75;;;34.46;24.73
10978;BME280;5542;48.272;10.794;2023-07-09T09:30:18;96209.31;;;34.44;25.75
10978;BME280;5542;48.272;10.794;2023-07-09T09:32:47;96215.66;;;34.51;28.49
10978;BME280;5542;48.272;10.794;2023-07-09T09:35:16;96215.81;;;34.62;27.30
10978;BME280;5542;48.272;10.794;2023-07-09T09:37:50;96205.97;;;34.91;25.06
10978;BME280;5542;48.272;10.794;2023-07-09T09:40:18;96214.53;;;34.89;28.52
10978;BME280;5542;48.272;10.794;2023-07-09T09:42:47;96215.09;;;35.02;28.13
10978;BME280;5542;48.272;10.794;2023-07-09T09:45:18;96207.94;;;35.28;25.49
10978;BME280;5542;48.272;10.794;2023-07-09T09:47:46;96203.50;;;35.57;24.49
10978;BME280;5542;48.272;10.794;2023-07-09T09:50:14;96201.78;;;35.38;24.43
10978;BME280;5542;48.272;10.794;2023-07-09T09:52:43;96203.13;;;35.14;24.32
10978;BME280;5542;48.272;10.794;2023-07-09T09:55:12;96208.44;;;35.00;24.18
10978;BME280;5542;48.272;10.794;2023-07-09T09:57:39;96207.22;;;34.97;24.05
10978;BME280;5542;48.272;10.794;2023-07-09T10:00:13;96216.25;;;35.01;25.21
10978;BME280;5542;48.272;10.794;2023-07-09T10:02:43;96214.09;;;35.21;24.51
10978;BME280;5542;48.272;10.794;2023-07-09T10:05:12;96210.22;;;34.85;24.27
10978;BME280;5542;48.272;10.794;2023-07-09T10:07:43;96208.16;;;34.45;25.14
10978;BME280;5542;48.272;10.794;2023-07-09T10:10:13;96211.59;;;34.42;24.48
10978;BME280;5542;48.272;10.794;2023-07-09T10:12:44;96214.59;;;34.29;24.48
10978;BME280;5542;48.272;10.794;2023-07-09T10:15:28;96218.78;;;34.50;25.11
10978;BME280;5542;48.272;10.794;2023-07-09T10:18:09;96214.47;;;34.19;23.73
10978;BME280;5542;48.272;10.794;2023-07-09T10:20:45;96219.53;;;34.20;26.20
10978;BME280;5542;48.272;10.794;2023-07-09T10:23:19;96216.09;;;34.53;26.85
10978;BME280;5542;48.272;10.794;2023-07-09T10:25:52;96209.84;;;34.86;22.46
10978;BME280;5542;48.272;10.794;2023-07-09T10:28:45;96214.34;;;34.11;23.16
10978;BME280;5542;48.272;10.794;2023-07-09T10:31:22;96207.91;;;33.97;23.23
10978;BME280;5542;48.272;10.794;2023-07-09T10:34:04;96213.44;;;33.77;24.11
10978;BME280;5542;48.272;10.794;2023-07-09T10:36:47;96207.50;;;33.72;23.85
10978;BME280;5542;48.272;10.794;2023-07-09T10:39:18;96205.13;;;33.70;24.85
10978;BME280;5542;48.272;10.794;2023-07-09T10:41:48;96204.84;;;34.02;24.00
10978;BME280;5542;48.272;10.794;2023-07-09T10:44:20;96201.72;;;34.00;25.05
10978;BME280;5542;48.272;10.794;2023-07-09T10:46:52;96200.63;;;34.08;24.69
10978;BME280;5542;48.272;10.794;2023-07-09T10:49:23;96204.56;;;34.40;22.92
10978;BME280;5542;48.272;10.794;2023-07-09T10:51:54;96199.94;;;34.45;22.24
10978;BME280;5542;48.272;10.794;2023-07-09T10:54:28;96199.44;;;34.65;23.23
10978;BME280;5542;48.272;10.794;2023-07-09T10:57:00;96204.31;;;34.83;24.44
10978;BME280;5542;48.272;10.794;2023-07-09T10:59:31;96194.91;;;35.14;23.94
10978;BME280;5542;48.272;10.794;2023-07-09T11:02:14;96181.09;;;35.44;21.42
10978;BME280;5542;48.272;10.794;2023-07-09T11:04:48;96182.72;;;35.49;22.23
10978;BME280;5542;48.272;10.794;2023-07-09T11:07:20;96180.13;;;35.70;21.18
10978;BME280;5542;48.272;10.794;2023-07-09T11:09:50;96176.28;;;35.78;22.10
10978;BME280;5542;48.272;10.794;2023-07-09T11:12:30;96172.28;;;35.65;20.92
10978;BME280;5542;48.272;10.794;2023-07-09T11:15:02;96174.91;;;35.06;22.46
10978;BME280;5542;48.272;10.794;2023-07-09T11:17:30;96162.16;;;34.84;22.03
10978;BME280;5542;48.272;10.794;2023-07-09T11:20:07;96172.63;;;35.12;21.45
10978;BME280;5542;48.272;10.794;2023-07-09T11:22:38;96151.31;;;35.28;21.22
10978;BME280;5542;48.272;10.794;2023-07-09T11:25:09;96154.16;;;35.43;21.71
10978;BME280;5542;48.272;10.794;2023-07-09T11:27:46;96157.28;;;35.45;21.53
10978;BME280;5542;48.272;10.794;2023-07-09T11:30:22;96154.06;;;35.35;21.62
10978;BME280;5542;48.272;10.794;2023-07-09T11:32:53;96158.03;;;35.38;20.73
10978;BME280;5542;48.272;10.794;2023-07-09T11:35:24;96159.84;;;35.23;21.52
10978;BME280;5542;48.272;10.794;2023-07-09T11:37:51;96156.25;;;35.15;22.82
10978;BME280;5542;48.272;10.794;2023-07-09T11:40:20;96154.44;;;35.30;21.79
10978;BME280;5542;48.272;10.794;2023-07-09T11:42:51;96143.25;;;35.46;20.91
10978;BME280;5542;48.272;10.794;2023-07-09T11:45:22;96147.03;;;35.34;21.15
10978;BME280;5542;48.272;10.794;2023-07-09T11:47:55;96150.16;;;35.33;22.23
10978;BME280;5542;48.272;10.794;2023-07-09T11:50:29;96146.22;;;35.30;20.86
10978;BME280;5542;48.272;10.794;2023-07-09T11:52:58;96146.84;;;35.09;21.01
10978;BME280;5542;48.272;10.794;2023-07-09T11:58:50;96122.59;;;35.04;18.46
10978;BME280;5542;48.272;10.794;2023-07-09T12:01:19;96120.34;;;35.17;20.33
10978;BME280;5542;48.272;10.794;2023-07-09T12:03:47;96126.41;;;34.96;21.69
10978;BME280;5542;48.272;10.794;2023-07-09T12:06:20;96126.19;;;34.75;21.50
10978;BME280;5542;48.272;10.794;2023-07-09T12:08:49;96139.44;;;34.39;21.80
10978;BME280;5542;48.272;10.794;2023-07-09T12:11:22;96137.97;;;34.15;22.45
10978;BME280;5542;48.272;10.794;2023-07-09T12:13:49;96137.94;;;34.45;24.17
10978;BME280;5542;48.272;10.794;2023-07-09T12:16:20;96129.97;;;34.63;21.91
10978;BME280;5542;48.272;10.794;2023-07-09T12:18:47;96128.56;;;34.76;23.72
10978;BME280;5542;48.272;10.794;2023-07-09T12:21:14;96120.31;;;34.73;22.14
10978;BME280;5542;48.272;10.794;2023-07-09T12:23:42;96122.84;;;34.55;23.08
10978;BME280;5542;48.272;10.794;2023-07-09T12:26:11;96125.63;;;34.58;21.83
10978;BME280;5542;48.272;10.794;2023-07-09T12:28:39;96113.63;;;34.67;21.30
10978;BME280;5542;48.272;10.794;2023-07-09T12:31:13;96115.03;;;34.90;23.29
10978;BME280;5542;48.272;10.794;2023-07-09T12:33:47;96124.91;;;34.61;21.72
10978;BME280;5542;48.272;10.794;2023-07-09T12:36:14;96115.38;;;34.48;21.40
10978;BME280;5542;48.272;10.794;2023-07-09T12:38:46;96121.09;;;34.39;22.47
10978;BME280;5542;48.272;10.794;2023-07-09T12:41:19;96111.34;;;34.38;23.34
10978;BME280;5542;48.272;10.794;2023-07-09T12:43:46;96111.34;;;34.72;22.84
10978;BME280;5542;48.272;10.794;2023-07-09T12:46:14;96104.56;;;34.96;21.94
10978;BME280;5542;48.272;10.794;2023-07-09T12:48:41;96107.22;;;34.93;21.63
10978;BME280;5542;48.272;10.794;2023-07-09T12:51:08;96102.25;;;35.02;22.70
10978;BME280;5542;48.272;10.794;2023-07-09T12:53:36;96097.84;;;35.34;21.49
10978;BME280;5542;48.272;10.794;2023-07-09T12:56:11;96095.09;;;35.34;20.23
10978;BME280;5542;48.272;10.794;2023-07-09T12:58:38;96097.88;;;35.38;20.22
10978;BME280;5542;48.272;10.794;2023-07-09T13:01:06;96097.75;;;35.24;21.39
10978;BME280;5542;48.272;10.794;2023-07-09T13:03:34;96085.63;;;34.77;21.41
10978;BME280;5542;48.272;10.794;2023-07-09T13:06:03;96094.13;;;34.68;21.89
10978;BME280;5542;48.272;10.794;2023-07-09T13:08:31;96092.59;;;34.71;21.17
10978;BME280;5542;48.272;10.794;2023-07-09T13:10:59;96083.91;;;34.28;21.59
10978;BME280;5542;48.272;10.794;2023-07-09T13:13:27;96083.22;;;34.01;22.19
10978;BME280;5542;48.272;10.794;2023-07-09T13:15:56;96096.44;;;33.99;22.51